Time;durP1;ratioP1;P1;durP2;ratioP2;P2;SDS_P1;SDS_P2;PMS_P1;PMS_P2;Temp;Humidity;BMP_temperature;BMP_pressure;BME280_temperature;BME280_humidity;BME280_pressure;Samples;Min_cycle;Max_cycle;Signal;HPM_P1;HPM_P2
2022/07/14 00:01:43;;;;;;;8.73;2.95;;;20.70;65.20;;;;;;4999854;28;20457;-85
2022/07/14 00:04:09;;;;;;;8.20;3.90;;;20.60;65.50;;;;;;5015757;28;20631;-86
2022/07/14 00:06:36;;;;;;;9.83;3.20;;;20.70;64.80;;;;;;5017708;28;20826;-86
2022/07/14 00:09:02;;;;;;;7.30;3.30;;;20.60;64.80;;;;;;5032947;28;20429;-85
2022/07/14 00:11:28;;;;;;;8.80;2.93;;;20.60;64.90;;;;;;5018230;28;20418;-85
2022/07/14 00:13:54;;;;;;;8.87;3.50;;;20.60;64.80;;;;;;5014781;28;20441;-86
2022/07/14 00:16:20;;;;;;;5.40;3.57;;;20.50;65.20;;;;;;5015190;28;20433;-85
2022/07/14 00:18:45;;;;;;;10.50;3.10;;;20.60;65.40;;;;;;5013159;28;20178;-86
2022/07/14 00:21:13;;;;;;;6.20;3.50;;;20.50;65.10;;;;;;5013799;28;20667;-86
2022/07/14 00:23:39;;;;;;;5.23;3.23;;;20.60;64.10;;;;;;5014061;28;20224;-85
2022/07/14 00:26:05;;;;;;;8.03;3.40;;;20.60;64.00;;;;;;5014113;28;20416;-86
2022/07/14 00:28:31;;;;;;;7.03;3.10;;;20.50;64.50;;;;;;5016344;28;20413;-86
2022/07/14 00:30:57;;;;;;;6.37;2.97;;;20.50;64.80;;;;;;5028805;28;20270;-84
2022/07/14 00:33:23;;;;;;;12.50;3.33;;;20.50;64.80;;;;;;5015634;28;20418;-86
2022/07/14 00:35:49;;;;;;;10.80;3.83;;;20.60;64.50;;;;;;5014930;28;20424;-85
2022/07/14 00:38:15;;;;;;;4.40;2.80;;;20.70;63.30;;;;;;5012600;28;20415;-86
2022/07/14 00:40:40;;;;;;;9.33;3.20;;;20.70;63.30;;;;;;5013464;28;20190;-85
2022/07/14 00:43:06;;;;;;;5.53;2.50;;;20.60;63.30;;;;;;5008927;28;20233;-86
2022/07/14 00:45:32;;;;;;;5.03;3.10;;;20.60;63.60;;;;;;4993639;28;20274;-85
2022/07/14 00:47:58;;;;;;;5.03;2.70;;;20.70;63.50;;;;;;4994305;28;20226;-85
2022/07/14 00:50:24;;;;;;;6.00;3.27;;;20.70;63.50;;;;;;4994137;28;20278;-86
2022/07/14 00:52:50;;;;;;;7.30;3.40;;;20.60;63.90;;;;;;4993663;28;20422;-86
2022/07/14 00:55:17;;;;;;;6.73;3.03;;;20.70;63.70;;;;;;4994044;28;20191;-86
2022/07/14 00:57:43;;;;;;;6.00;2.40;;;20.70;63.40;;;;;;4994646;28;20466;-86
2022/07/14 01:00:12;;;;;;;4.77;3.30;;;20.60;63.40;;;;;;4994175;28;20431;-86
2022/07/14 01:02:37;;;;;;;6.70;3.03;;;20.70;63.50;;;;;;5006217;28;20461;-85
2022/07/14 01:05:05;;;;;;;8.17;3.10;;;20.60;63.70;;;;;;5015475;28;20414;-86
2022/07/14 01:07:31;;;;;;;12.17;3.60;;;20.60;63.60;;;;;;5014310;28;20595;-87
2022/07/14 01:09:57;;;;;;;10.50;3.67;;;20.70;63.40;;;;;;5015217;28;20934;-86
2022/07/14 01:12:22;;;;;;;7.00;3.40;;;20.60;63.60;;;;;;5017157;28;20189;-85
2022/07/14 01:14:48;;;;;;;6.53;3.60;;;20.50;64.10;;;;;;5030808;28;20171;-86
2022/07/14 01:17:14;;;;;;;11.10;3.83;;;20.50;64.30;;;;;;5022788;28;20739;-87
2022/07/14 01:19:40;;;;;;;7.80;3.53;;;20.40;65.20;;;;;;5010448;28;20214;-86
2022/07/14 01:22:06;;;;;;;6.33;3.57;;;20.30;65.40;;;;;;4993058;28;20469;-86
2022/07/14 01:24:33;;;;;;;4.00;3.45;;;20.30;65.90;;;;;;4992632;28;20180;-85
2022/07/14 01:26:59;;;;;;;10.35;4.53;;;20.30;65.80;;;;;;4992347;28;20195;-86
2022/07/14 01:29:25;;;;;;;10.30;4.55;;;20.40;65.30;;;;;;4993721;28;20707;-86
2022/07/14 01:31:51;;;;;;;9.87;4.10;;;20.40;65.50;;;;;;4993513;28;20190;-85
2022/07/14 01:34:17;;;;;;;7.75;4.28;;;20.40;65.00;;;;;;4993438;28;20427;-86
2022/07/14 01:36:44;;;;;;;5.18;3.80;;;20.30;65.90;;;;;;5003612;28;20202;-86
2022/07/14 01:39:10;;;;;;;9.57;3.95;;;20.30;66.40;;;;;;5017406;28;20550;-86
2022/07/14 01:41:36;;;;;;;8.10;3.67;;;20.30;66.40;;;;;;5017078;28;20242;-86
2022/07/14 01:44:03;;;;;;;10.52;4.50;;;20.30;66.10;;;;;;5004827;28;20442;-86
2022/07/14 01:46:29;;;;;;;9.65;4.00;;;20.50;65.40;;;;;;4998530;28;20214;-86
2022/07/14 01:48:54;;;;;;;8.83;3.83;;;20.50;65.30;;;;;;4997702;28;20203;-86
2022/07/14 01:51:21;;;;;;;5.63;3.63;;;20.50;65.20;;;;;;5002861;28;20278;-86
2022/07/14 01:53:48;;;;;;;7.32;3.75;;;20.40;65.30;;;;;;5010469;28;20235;-85
2022/07/14 01:56:13;;;;;;;10.68;3.85;;;20.40;65.50;;;;;;5018182;28;20183;-84
2022/07/14 01:58:39;;;;;;;12.63;4.73;;;20.40;65.50;;;;;;5002211;28;20277;-85
2022/07/14 02:03:55;;;;;;;10.88;5.38;;;20.30;65.90;;;;;;5012745;28;20186;-86
2022/07/14 02:06:20;;;;;;;9.57;4.87;;;20.30;66.00;;;;;;5016108;28;20198;-85
2022/07/14 02:08:46;;;;;;;13.47;5.40;;;20.20;66.10;;;;;;5015858;28;20181;-85
2022/07/14 02:13:56;;;;;;;10.38;4.65;;;20.10;66.80;;;;;;5016829;28;20170;-87
2022/07/14 02:16:21;;;;;;;12.20;5.57;;;20.20;66.40;;;;;;5015111;28;20202;-84
2022/07/14 02:18:47;;;;;;;10.03;5.70;;;20.10;66.90;;;;;;5014646;28;20228;-85
2022/07/14 02:21:13;;;;;;;8.50;4.80;;;20.10;66.80;;;;;;5009714;28;20677;-83
2022/07/14 02:23:39;;;;;;;11.43;5.43;;;20.10;67.00;;;;;;5014996;28;20175;-84
2022/07/14 02:26:11;;;;;;;10.43;5.73;;;20.10;67.20;;;;;;5015281;28;20420;-85
2022/07/14 02:28:38;;;;;;;12.73;6.10;;;20.10;67.10;;;;;;5015544;28;20174;-86
2022/07/14 02:31:04;;;;;;;8.82;4.55;;;20.10;66.90;;;;;;5014120;28;20260;-85
2022/07/14 02:33:29;;;;;;;6.60;4.23;;;19.90;67.40;;;;;;5013992;28;20178;-85
2022/07/14 02:35:55;;;;;;;9.73;4.00;;;19.90;67.80;;;;;;5014082;28;20178;-84
2022/07/14 02:38:21;;;;;;;8.13;4.70;;;19.80;68.10;;;;;;5016424;28;20205;-85
2022/07/14 02:40:47;;;;;;;9.20;5.10;;;19.80;68.40;;;;;;5014321;28;20543;-84
2022/07/14 02:43:12;;;;;;;18.33;6.03;;;19.70;68.70;;;;;;5008818;28;20433;-86
2022/07/14 02:45:39;;;;;;;7.50;5.23;;;19.70;69.00;;;;;;4995186;28;20419;-86
2022/07/14 02:48:06;;;;;;;8.55;4.82;;;19.60;68.90;;;;;;4996169;28;20204;-85
2022/07/14 02:50:32;;;;;;;7.40;4.95;;;19.60;69.20;;;;;;4995739;28;20207;-86
2022/07/14 02:52:58;;;;;;;9.30;4.67;;;19.60;69.30;;;;;;4994839;28;20567;-85
2022/07/14 02:55:24;;;;;;;7.07;4.97;;;19.50;69.80;;;;;;4996016;28;20446;-85
2022/07/14 02:57:50;;;;;;;8.53;4.47;;;19.50;69.60;;;;;;4997377;28;20282;-85
2022/07/14 03:00:17;;;;;;;7.28;4.93;;;19.50;70.00;;;;;;4994525;28;20655;-85
2022/07/14 03:02:42;;;;;;;7.90;4.43;;;19.30;70.30;;;;;;4993882;28;20207;-85
2022/07/14 03:05:08;;;;;;;15.10;4.80;;;19.30;71.00;;;;;;4995169;28;20229;-85
2022/07/14 03:07:34;;;;;;;9.10;5.03;;;19.30;70.60;;;;;;4993604;28;20201;-85
2022/07/14 03:09:59;;;;;;;9.83;4.40;;;19.30;70.90;;;;;;4994229;28;20587;-85
2022/07/14 03:12:25;;;;;;;12.37;4.80;;;19.20;70.80;;;;;;4994136;28;20198;-85
2022/07/14 03:14:51;;;;;;;7.70;4.33;;;19.20;71.30;;;;;;4994617;28;20738;-86
2022/07/14 03:17:17;;;;;;;11.93;4.30;;;19.20;71.20;;;;;;5004045;28;20835;-85
2022/07/14 03:19:43;;;;;;;8.55;4.97;;;19.20;71.60;;;;;;5014362;28;20298;-85
2022/07/14 03:22:09;;;;;;;13.40;4.90;;;19.20;71.60;;;;;;5019172;28;20483;-84
2022/07/14 03:24:34;;;;;;;8.50;4.70;;;19.20;71.20;;;;;;5017144;28;20213;-84
2022/07/14 03:27:00;;;;;;;10.37;4.60;;;19.20;71.30;;;;;;5012471;28;20205;-85
2022/07/14 03:29:27;;;;;;;17.47;5.87;;;19.10;71.30;;;;;;5012995;28;20542;-85
2022/07/14 03:31:54;;;;;;;9.63;4.95;;;19.10;72.10;;;;;;5013469;28;20573;-86
2022/07/14 03:34:19;;;;;;;8.00;4.47;;;19.10;71.30;;;;;;5013336;28;20185;-85
2022/07/14 03:36:45;;;;;;;13.73;5.30;;;19.00;71.70;;;;;;5013414;28;20202;-86
2022/07/14 03:39:11;;;;;;;13.50;6.07;;;19.00;71.80;;;;;;5015361;28;20285;-86
2022/07/14 03:41:36;;;;;;;10.40;4.90;;;19.00;72.10;;;;;;5024095;28;20196;-85
2022/07/14 03:44:03;;;;;;;8.20;4.57;;;19.00;71.90;;;;;;5029752;28;20227;-85
2022/07/14 03:46:28;;;;;;;12.02;5.70;;;18.90;71.90;;;;;;5013210;28;20198;-85
2022/07/14 03:48:54;;;;;;;7.33;5.30;;;18.90;71.80;;;;;;5012669;28;20557;-85
2022/07/14 03:51:24;;;;;;;13.30;5.57;;;18.80;71.80;;;;;;5012992;28;20175;-85
2022/07/14 03:53:49;;;;;;;11.02;6.45;;;18.80;72.30;;;;;;5014386;28;20257;-85
2022/07/14 03:56:15;;;;;;;14.40;5.77;;;18.80;72.50;;;;;;5015408;28;20244;-86
2022/07/14 03:58:41;;;;;;;10.83;6.17;;;18.70;72.70;;;;;;5017288;28;20194;-86
2022/07/14 04:01:06;;;;;;;10.70;6.00;;;18.70;72.80;;;;;;5017345;28;20694;-85
2022/07/14 04:03:32;;;;;;;13.87;5.37;;;18.70;73.30;;;;;;5022762;28;20242;-85
2022/07/14 04:05:58;;;;;;;14.20;6.30;;;18.70;73.30;;;;;;5028492;28;20186;-84
2022/07/14 04:08:24;;;;;;;7.60;4.70;;;18.80;73.00;;;;;;5025983;28;20182;-85
2022/07/14 04:10:49;;;;;;;14.60;4.90;;;18.80;73.30;;;;;;5026714;28;20263;-84
2022/07/14 04:13:15;;;;;;;9.37;5.23;;;18.80;72.90;;;;;;5020454;28;20433;-85
2022/07/14 04:15:41;;;;;;;11.90;5.67;;;18.80;72.70;;;;;;5015270;28;20261;-85
2022/07/14 04:18:08;;;;;;;15.68;5.53;;;18.90;72.50;;;;;;5016028;28;20241;-85
2022/07/14 04:20:34;;;;;;;12.23;5.53;;;19.00;72.00;;;;;;5020686;28;20179;-84
2022/07/14 04:22:59;;;;;;;19.93;5.27;;;19.00;71.80;;;;;;4988705;28;20242;-84
2022/07/14 04:25:25;;;;;;;10.63;5.27;;;19.00;71.30;;;;;;4993423;28;20713;-85
2022/07/14 04:27:51;;;;;;;8.20;4.93;;;19.00;71.30;;;;;;4994265;28;20202;-85
2022/07/14 04:30:17;;;;;;;8.00;4.53;;;18.90;71.60;;;;;;4993981;28;20175;-85
2022/07/14 04:32:43;;;;;;;4.43;3.73;;;19.00;72.30;;;;;;4995410;28;20201;-86
2022/07/14 04:35:21;;;;;;;8.10;4.93;;;19.10;71.20;;;;;;4994378;28;20418;-85
2022/07/14 04:37:47;;;;;;;8.98;4.85;;;19.20;70.80;;;;;;5015600;28;20452;-85
2022/07/14 04:40:12;;;;;;;10.60;4.50;;;19.20;70.40;;;;;;5013062;28;20182;-85
2022/07/14 04:42:38;;;;;;;12.53;5.00;;;19.20;70.50;;;;;;5012043;28;20202;-85
2022/07/14 04:45:05;;;;;;;10.20;4.80;;;19.30;70.40;;;;;;4994008;28;20423;-86
2022/07/14 04:47:30;;;;;;;8.13;4.22;;;19.30;70.00;;;;;;4994105;28;20253;-86
2022/07/14 04:52:45;;;;;;;9.73;4.25;;;19.40;69.50;;;;;;4994616;28;20197;-87
2022/07/14 04:55:18;;;;;;;8.98;4.20;;;19.50;69.50;;;;;;4998161;28;20214;-86
2022/07/14 04:57:44;;;;;;;10.45;4.40;;;19.50;69.50;;;;;;4998929;28;20690;-85
2022/07/14 05:00:11;;;;;;;7.78;3.83;;;19.60;69.20;;;;;;5011260;28;20178;-87
2022/07/14 05:02:37;;;;;;;10.57;3.85;;;19.60;69.20;;;;;;5012490;28;20201;-86
2022/07/14 05:05:03;;;;;;;6.87;3.00;;;19.80;67.90;;;;;;5014245;28;20175;-86
2022/07/14 05:07:29;;;;;;;9.10;4.40;;;19.90;68.30;;;;;;5012171;28;20194;-85
2022/07/14 05:09:55;;;;;;;16.33;3.90;;;20.10;68.20;;;;;;5015033;28;20191;-87
2022/07/14 05:12:21;;;;;;;9.05;3.70;;;20.30;66.40;;;;;;5004807;28;20210;-86
2022/07/14 05:14:46;;;;;;;16.40;4.77;;;20.30;66.50;;;;;;5007846;28;20182;-85
2022/07/14 05:17:13;;;;;;;10.53;4.43;;;20.30;65.60;;;;;;5006105;28;20203;-86
2022/07/14 05:19:39;;;;;;;9.60;4.30;;;20.40;65.60;;;;;;4998486;28;20187;-87
2022/07/14 05:22:05;;;;;;;7.50;3.60;;;20.30;64.80;;;;;;4997884;28;20478;-86
2022/07/14 05:24:30;;;;;;;12.47;3.87;;;20.40;64.80;;;;;;4997879;28;20426;-86
2022/07/14 05:26:58;;;;;;;10.23;4.07;;;20.20;65.10;;;;;;4997680;28;20761;-87
2022/07/14 05:29:25;;;;;;;12.50;4.35;;;20.10;65.50;;;;;;5002864;28;20191;-87
2022/07/14 05:31:51;;;;;;;12.27;4.68;;;20.10;65.60;;;;;;5013621;28;20183;-85
2022/07/14 05:34:17;;;;;;;12.10;4.67;;;20.10;66.10;;;;;;5010909;28;20229;-86
2022/07/14 05:36:43;;;;;;;10.98;4.30;;;20.00;66.50;;;;;;5006266;28;20198;-86
2022/07/14 05:39:08;;;;;;;18.80;4.87;;;20.00;66.20;;;;;;5017097;28;20183;-86
2022/07/14 05:41:34;;;;;;;8.60;4.40;;;20.10;66.10;;;;;;5015595;28;20203;-86
2022/07/14 05:44:00;;;;;;;10.00;3.90;;;20.00;65.80;;;;;;5003764;28;20183;-87
2022/07/14 05:46:26;;;;;;;8.03;3.80;;;19.90;66.30;;;;;;4996410;28;20199;-85
2022/07/14 05:48:52;;;;;;;8.53;3.67;;;19.90;66.30;;;;;;4998881;28;20179;-85
2022/07/14 05:51:19;;;;;;;8.23;4.65;;;20.00;66.10;;;;;;4996578;28;20558;-86
2022/07/14 05:53:46;;;;;;;11.70;4.68;;;20.10;65.90;;;;;;4998193;28;20567;-86
2022/07/14 05:56:12;;;;;;;11.60;4.27;;;20.10;65.60;;;;;;4999368;28;20543;-86
2022/07/14 05:58:39;;;;;;;8.30;3.90;;;20.20;65.50;;;;;;5015498;28;20552;-86
2022/07/14 06:01:07;;;;;;;7.13;3.27;;;20.30;65.40;;;;;;5015718;28;20309;-86
2022/07/14 06:03:34;;;;;;;12.20;4.40;;;20.40;65.00;;;;;;5015376;28;20429;-86
2022/07/14 06:06:01;;;;;;;13.13;4.00;;;20.70;63.90;;;;;;5017581;28;20925;-86
2022/07/14 06:08:28;;;;;;;11.70;4.67;;;20.80;63.30;;;;;;5015858;28;20418;-87
2022/07/14 06:10:55;;;;;;;7.77;3.67;;;20.80;63.00;;;;;;5016394;28;20746;-86
2022/07/14 06:13:24;;;;;;;11.47;4.57;;;20.80;63.10;;;;;;5016088;28;20418;-87
2022/07/14 06:15:49;;;;;;;9.77;3.90;;;20.90;62.80;;;;;;5016319;28;20418;-87
2022/07/14 06:18:15;;;;;;;8.87;4.33;;;21.20;62.00;;;;;;5018392;28;20441;-86
2022/07/14 06:20:41;;;;;;;8.43;3.70;;;21.20;61.50;;;;;;5025899;28;20179;-87
2022/07/14 06:23:09;;;;;;;8.57;4.43;;;21.20;61.60;;;;;;5014551;28;20210;-86
2022/07/14 06:25:38;;;;;;;9.73;3.77;;;21.30;61.50;;;;;;5014907;28;20421;-86
2022/07/14 06:28:05;;;;;;;8.87;4.00;;;21.30;61.50;;;;;;5014202;28;20821;-87
2022/07/14 06:30:31;;;;;;;7.87;3.90;;;21.50;61.30;;;;;;5001709;28;20421;-86
2022/07/14 06:32:57;;;;;;;10.13;4.03;;;21.70;60.50;;;;;;5017677;28;20432;-85
2022/07/14 06:35:23;;;;;;;8.10;4.00;;;21.80;60.10;;;;;;5016141;28;20421;-85
2022/07/14 06:37:52;;;;;;;13.00;3.80;;;21.80;60.10;;;;;;5015492;28;20452;-84
2022/07/14 06:40:18;;;;;;;9.60;4.10;;;22.00;59.70;;;;;;5030211;28;20421;-83
2022/07/14 06:42:44;;;;;;;9.93;3.37;;;22.30;58.60;;;;;;5028096;28;20500;-85
2022/07/14 06:45:10;;;;;;;11.10;3.70;;;22.40;57.50;;;;;;5034160;28;20194;-85
2022/07/14 06:47:36;;;;;;;11.47;4.17;;;22.40;57.50;;;;;;5033684;28;20441;-85
2022/07/14 06:50:02;;;;;;;9.90;3.87;;;22.50;57.50;;;;;;5027317;28;20428;-86
2022/07/14 06:52:28;;;;;;;12.47;3.80;;;22.80;56.70;;;;;;5015144;28;20594;-87
2022/07/14 06:54:57;;;;;;;9.30;3.50;;;22.80;56.00;;;;;;5015093;28;20436;-86
2022/07/14 06:57:22;;;;;;;10.73;3.63;;;22.70;56.10;;;;;;5008596;28;20294;-86
2022/07/14 06:59:49;;;;;;;12.93;3.63;;;22.60;56.00;;;;;;4994996;28;20453;-86
2022/07/14 07:02:14;;;;;;;8.87;4.00;;;22.70;56.60;;;;;;4995250;28;20203;-86
2022/07/14 07:04:40;;;;;;;10.40;3.60;;;23.00;55.90;;;;;;4996288;28;20798;-84
2022/07/14 07:07:06;;;;;;;14.30;4.60;;;23.20;54.90;;;;;;4996425;28;20206;-86
2022/07/14 07:09:31;;;;;;;7.23;3.50;;;23.30;54.70;;;;;;4997002;28;20180;-84
2022/07/14 07:11:57;;;;;;;6.43;3.50;;;23.50;54.00;;;;;;4997997;28;20179;-87
2022/07/14 07:14:23;;;;;;;9.10;3.37;;;23.70;54.10;;;;;;4996996;28;20597;-87
2022/07/14 07:16:50;;;;;;;9.20;3.97;;;23.90;52.80;;;;;;4995914;28;20195;-86
2022/07/14 07:19:16;;;;;;;9.97;3.10;;;24.10;51.40;;;;;;4998144;28;20179;-87
2022/07/14 07:21:42;;;;;;;7.50;2.90;;;24.10;50.80;;;;;;5017033;28;20477;-87
2022/07/14 07:24:09;;;;;;;12.70;3.37;;;24.30;50.60;;;;;;4998165;28;20427;-87
2022/07/14 07:26:38;;;;;;;4.67;2.90;;;24.40;49.70;;;;;;4995521;28;20453;-85
2022/07/14 07:29:07;;;;;;;9.80;2.83;;;24.50;49.40;;;;;;4994818;28;20418;-87
2022/07/14 07:31:34;;;;;;;7.73;3.43;;;24.10;50.30;;;;;;4994679;28;20939;-85
2022/07/14 07:34:00;;;;;;;7.40;3.17;;;24.20;49.50;;;;;;4994969;28;20453;-87
2022/07/14 07:36:26;;;;;;;9.93;3.10;;;24.00;48.80;;;;;;5010436;28;20437;-87
2022/07/14 07:38:52;;;;;;;10.07;3.37;;;23.90;48.40;;;;;;5014119;28;20439;-87
2022/07/14 07:41:18;;;;;;;12.30;3.20;;;23.60;48.80;;;;;;5015511;28;20198;-86
2022/07/14 07:43:44;;;;;;;8.50;2.87;;;23.50;48.20;;;;;;5015060;28;20425;-87
2022/07/14 07:46:09;;;;;;;5.93;3.17;;;23.20;48.80;;;;;;5015129;28;20201;-86
2022/07/14 07:48:35;;;;;;;4.30;2.73;;;22.80;50.10;;;;;;5032333;28;20225;-87
2022/07/14 07:51:02;;;;;;;11.03;3.00;;;22.70;51.20;;;;;;5014188;28;20289;-86
2022/07/14 07:53:28;;;;;;;6.57;2.27;;;22.60;52.20;;;;;;5014682;28;20417;-86
2022/07/14 07:55:53;;;;;;;7.93;3.00;;;22.60;51.90;;;;;;5013173;28;20437;-85
2022/07/14 07:58:20;;;;;;;10.23;3.90;;;22.50;52.30;;;;;;5012249;28;20622;-87
2022/07/14 08:00:47;;;;;;;8.87;3.40;;;22.60;52.50;;;;;;5012906;28;20186;-85
2022/07/14 08:03:13;;;;;;;9.90;2.73;;;22.60;50.80;;;;;;5017716;28;20540;-88
2022/07/14 08:05:40;;;;;;;6.50;2.67;;;22.60;51.30;;;;;;5014822;28;20464;-87
2022/07/14 08:08:09;;;;;;;5.50;2.50;;;22.50;50.60;;;;;;5012538;28;20441;-85
2022/07/14 08:10:39;;;;;;;5.33;2.50;;;22.60;49.10;;;;;;5013303;28;20621;-86
2022/07/14 08:13:05;;;;;;;12.07;2.40;;;22.90;48.10;;;;;;5008293;28;20477;-84
2022/07/14 08:15:31;;;;;;;5.97;2.50;;;23.10;47.80;;;;;;4994267;28;20946;-85
2022/07/14 08:17:57;;;;;;;6.03;2.27;;;23.30;46.60;;;;;;5005231;28;20449;-84
2022/07/14 08:20:23;;;;;;;11.43;3.40;;;23.50;45.70;;;;;;5015244;28;20417;-85
2022/07/14 08:22:49;;;;;;;7.20;2.27;;;23.70;44.90;;;;;;4999796;28;20469;-85
2022/07/14 08:25:14;;;;;;;6.43;2.30;;;23.80;44.70;;;;;;5014261;28;20183;-85
2022/07/14 08:27:40;;;;;;;9.23;2.50;;;24.00;44.00;;;;;;5015216;28;20257;-84
2022/07/14 08:30:07;;;;;;;6.20;2.97;;;23.90;43.00;;;;;;5013805;28;20189;-86
2022/07/14 08:32:45;;;;;;;7.90;3.00;;;23.70;43.40;;;;;;5012632;28;20476;-86
2022/07/14 08:35:13;;;;;;;8.93;2.57;;;23.50;44.20;;;;;;5012644;28;20846;-87
2022/07/14 08:37:40;;;;;;;5.63;2.37;;;23.60;44.20;;;;;;5012184;28;20457;-86
2022/07/14 08:40:09;;;;;;;7.40;2.93;;;23.70;44.00;;;;;;4997242;28;20457;-86
2022/07/14 08:42:36;;;;;;;9.10;2.90;;;23.80;43.00;;;;;;5013571;28;20949;-86
2022/07/14 08:45:12;;;;;;;6.93;2.60;;;23.70;44.20;;;;;;4993036;28;20868;-86
2022/07/14 08:47:38;;;;;;;4.10;2.40;;;23.90;41.10;;;;;;4997848;28;20465;-86
2022/07/14 08:50:06;;;;;;;8.37;2.60;;;24.00;40.90;;;;;;4999795;28;20418;-87
2022/07/14 08:52:32;;;;;;;10.37;2.47;;;24.20;41.10;;;;;;5001675;28;20418;-86
2022/07/14 08:54:59;;;;;;;5.23;2.47;;;24.30;40.80;;;;;;5000529;28;20422;-86
2022/07/14 08:57:25;;;;;;;6.53;2.33;;;24.20;40.80;;;;;;5000754;28;20468;-87
2022/07/14 08:59:50;;;;;;;9.53;3.00;;;24.00;41.70;;;;;;5000701;28;20426;-87
2022/07/14 09:02:16;;;;;;;8.70;2.50;;;24.10;42.70;;;;;;5000611;28;20213;-87
2022/07/14 09:04:46;;;;;;;7.03;1.83;;;24.30;42.30;;;;;;5008562;28;20174;-84
2022/07/14 09:07:30;;;;;;;5.00;2.10;;;24.30;40.70;;;;;;5014312;28;20511;-86
2022/07/14 09:10:13;;;;;;;5.70;2.67;;;24.20;39.60;;;;;;5015030;28;20405;-87
2022/07/14 09:12:41;;;;;;;7.30;2.10;;;24.40;39.50;;;;;;5019301;28;20421;-86
2022/07/14 09:18:12;;;;;;;3.27;2.30;;;24.20;38.90;;;;;;5018541;28;20444;-86
2022/07/14 09:20:38;;;;;;;5.07;2.77;;;24.00;38.90;;;;;;5017421;28;20413;-86
2022/07/14 09:23:05;;;;;;;13.33;3.47;;;24.10;39.00;;;;;;5017525;28;20463;-85
2022/07/14 09:25:37;;;;;;;11.63;2.60;;;24.30;41.30;;;;;;5018764;28;20509;-86
2022/07/14 09:28:03;;;;;;;8.87;2.90;;;24.50;42.70;;;;;;5001436;28;20469;-87
2022/07/14 09:30:31;;;;;;;5.77;2.57;;;24.60;42.60;;;;;;5017450;28;20484;-86
2022/07/14 09:32:58;;;;;;;8.30;2.83;;;24.70;43.00;;;;;;5017749;28;20429;-86
2022/07/14 09:35:38;;;;;;;8.13;2.60;;;24.70;42.80;;;;;;5017959;28;20414;-86
2022/07/14 09:38:23;;;;;;;11.03;3.33;;;24.70;41.40;;;;;;4998620;28;20444;-87
2022/07/14 09:40:50;;;;;;;4.77;2.23;;;24.70;42.90;;;;;;5001733;28;20419;-87
2022/07/14 09:43:17;;;;;;;3.87;2.87;;;24.70;41.70;;;;;;5003992;28;20460;-87
2022/07/14 09:45:47;;;;;;;5.63;2.50;;;24.70;40.80;;;;;;5004771;28;20999;-88
2022/07/14 09:48:16;;;;;;;5.57;2.30;;;24.70;40.00;;;;;;5017212;28;20433;-87
2022/07/14 09:50:56;;;;;;;7.70;2.03;;;24.60;39.80;;;;;;5013879;28;20750;-86
2022/07/14 09:53:28;;;;;;;11.23;2.77;;;24.60;40.50;;;;;;5018692;28;20425;-85
2022/07/14 09:56:01;;;;;;;5.77;3.13;;;24.60;40.80;;;;;;5025903;28;20416;-85
2022/07/14 09:58:31;;;;;;;5.87;3.13;;;24.70;41.00;;;;;;5013819;28;20525;-87
2022/07/14 10:01:03;;;;;;;5.10;2.67;;;24.70;42.20;;;;;;5017401;28;20484;-88
2022/07/14 10:03:31;;;;;;;9.67;3.13;;;24.90;40.70;;;;;;5015322;28;20425;-87
2022/07/14 10:05:58;;;;;;;7.40;2.70;;;25.00;41.80;;;;;;4998385;28;20426;-88
2022/07/14 10:08:27;;;;;;;4.77;1.83;;;25.20;39.30;;;;;;4995763;28;20468;-87
2022/07/14 10:10:55;;;;;;;4.83;2.17;;;25.30;37.50;;;;;;4995782;28;20419;-87
2022/07/14 10:13:22;;;;;;;7.47;2.20;;;25.40;38.10;;;;;;4996093;28;20419;-87
2022/07/14 10:15:53;;;;;;;8.93;2.73;;;25.50;38.20;;;;;;4996325;28;20417;-87
2022/07/14 10:18:20;;;;;;;7.43;3.10;;;25.50;39.00;;;;;;4995220;28;20963;-87
2022/07/14 10:20:51;;;;;;;7.03;3.50;;;25.40;38.90;;;;;;4995819;28;20423;-87
2022/07/14 10:23:18;;;;;;;5.20;2.40;;;25.40;38.90;;;;;;4995751;28;20591;-87
2022/07/14 10:25:50;;;;;;;4.30;2.30;;;25.30;39.20;;;;;;4995575;28;20785;-88
2022/07/14 10:28:17;;;;;;;2.43;1.87;;;25.40;36.20;;;;;;4995196;28;20445;-87
2022/07/14 10:31:04;;;;;;;5.93;2.33;;;25.40;35.10;;;;;;4995693;28;20481;-86
2022/07/14 10:34:01;;;;;;;5.23;2.20;;;25.40;34.80;;;;;;4995963;28;20427;-89
2022/07/14 10:36:39;;;;;;;6.47;2.07;;;25.60;35.30;;;;;;5006513;28;20435;-87
2022/07/14 10:39:27;;;;;;;5.33;1.70;;;25.50;36.30;;;;;;5019274;28;20407;-84
2022/07/14 10:42:19;;;;;;;3.20;1.73;;;25.20;38.10;;;;;;5027320;28;20447;-87
2022/07/14 10:44:46;;;;;;;6.30;2.60;;;25.30;38.80;;;;;;4998616;28;20431;-87
2022/07/14 10:47:17;;;;;;;13.57;2.17;;;25.50;38.00;;;;;;5010390;28;20444;-87
2022/07/14 10:50:05;;;;;;;6.43;2.93;;;25.70;36.50;;;;;;5030918;28;20405;-85
2022/07/14 10:52:32;;;;;;;4.60;2.03;;;25.00;38.90;;;;;;5020193;28;20428;-89
2022/07/14 10:55:18;;;;;;;9.17;2.80;;;25.10;40.20;;;;;;5014952;28;20500;-88
2022/07/14 10:57:59;;;;;;;9.57;2.83;;;25.50;37.20;;;;;;5016038;28;20448;-88
2022/07/14 11:00:58;;;;;;;6.93;2.27;;;25.90;34.50;;;;;;5016881;28;20429;-88
2022/07/14 11:03:33;;;;;;;5.03;2.20;;;25.90;33.60;;;;;;5007048;28;20883;-88
2022/07/14 11:06:08;;;;;;;3.07;1.70;;;25.90;35.00;;;;;;5014809;28;20431;-88
2022/07/14 11:08:43;;;;;;;6.23;2.07;;;25.70;36.60;;;;;;5014205;28;20987;-89
2022/07/14 11:11:23;;;;;;;4.40;2.60;;;25.60;35.40;;;;;;5014616;28;20415;-86
2022/07/14 11:14:01;;;;;;;5.53;2.27;;;25.30;37.20;;;;;;5013923;28;20588;-89
2022/07/14 11:16:46;;;;;;;6.73;2.30;;;25.40;38.00;;;;;;5014007;28;20461;-88
2022/07/14 11:19:28;;;;;;;2.53;1.73;;;25.60;37.40;;;;;;5014354;28;20426;-88
2022/07/14 11:22:20;;;;;;;5.67;2.23;;;25.90;36.80;;;;;;5014383;28;21058;-89
2022/07/14 11:24:57;;;;;;;9.33;3.37;;;26.00;35.40;;;;;;5006046;28;20474;-87
2022/07/14 11:27:26;;;;;;;4.27;2.40;;;26.10;34.40;;;;;;4993431;28;20492;-87
2022/07/14 11:29:52;;;;;;;7.53;2.43;;;25.90;34.80;;;;;;5004162;28;20434;-87
2022/07/14 11:32:34;;;;;;;5.53;2.50;;;25.80;35.00;;;;;;5014942;28;20506;-87
2022/07/14 11:38:22;;;;;;;4.60;2.13;;;26.20;32.80;;;;;;4996340;28;20444;-85
2022/07/14 11:40:52;;;;;;;3.10;2.33;;;26.10;34.20;;;;;;5001987;28;20794;-89
2022/07/14 11:43:30;;;;;;;3.43;2.27;;;26.10;32.70;;;;;;5012688;28;20461;-88
2022/07/14 11:46:04;;;;;;;6.17;2.47;;;25.40;34.50;;;;;;5014286;28;20417;-87
2022/07/14 11:48:36;;;;;;;5.80;2.13;;;25.40;34.40;;;;;;5013794;28;20411;-89
2022/07/14 11:51:09;;;;;;;5.17;2.60;;;25.10;35.30;;;;;;5014708;28;20418;-88
2022/07/14 11:53:37;;;;;;;5.50;2.60;;;25.50;33.90;;;;;;4998791;28;20906;-87
2022/07/14 11:56:06;;;;;;;6.00;1.93;;;25.90;32.20;;;;;;5014231;28;20424;-88
2022/07/14 11:58:32;;;;;;;3.73;1.80;;;26.00;33.20;;;;;;5013886;28;20482;-86
2022/07/14 12:01:00;;;;;;;5.70;2.20;;;25.60;32.60;;;;;;5014856;28;20418;-88
2022/07/14 12:03:27;;;;;;;2.50;1.93;;;25.60;34.40;;;;;;5015445;28;20473;-89
2022/07/14 12:05:58;;;;;;;3.27;2.30;;;25.20;34.50;;;;;;5027799;28;20425;-86
2022/07/14 12:08:26;;;;;;;6.57;3.00;;;25.20;34.80;;;;;;5020216;28;20501;-88
2022/07/14 12:10:52;;;;;;;2.47;2.00;;;25.10;34.90;;;;;;5014370;28;20443;-87
2022/07/14 12:13:18;;;;;;;2.73;2.03;;;25.40;32.60;;;;;;5014576;28;20957;-87
2022/07/14 12:15:45;;;;;;;3.37;2.27;;;25.60;31.60;;;;;;5014070;28;20556;-88
2022/07/14 12:18:12;;;;;;;5.90;2.77;;;25.60;32.00;;;;;;4997377;28;20442;-88
2022/07/14 12:20:47;;;;;;;6.07;2.30;;;25.50;32.50;;;;;;5013183;28;20421;-89
2022/07/14 12:23:15;;;;;;;4.80;2.10;;;25.40;32.60;;;;;;5013309;28;20477;-88
2022/07/14 12:25:44;;;;;;;5.90;2.17;;;25.30;34.40;;;;;;5013723;28;20426;-88
2022/07/14 12:28:16;;;;;;;8.30;2.60;;;25.10;36.20;;;;;;5014188;28;20449;-87
2022/07/14 12:30:52;;;;;;;7.47;2.10;;;24.90;36.80;;;;;;4999854;28;20430;-87
2022/07/14 12:33:39;;;;;;;4.07;2.03;;;25.00;37.00;;;;;;5019638;28;20437;-86
2022/07/14 12:36:12;;;;;;;5.03;2.10;;;24.80;36.70;;;;;;5029478;28;20784;-89
2022/07/14 12:38:39;;;;;;;4.83;2.70;;;24.90;37.00;;;;;;5014681;28;20431;-88
2022/07/14 12:41:06;;;;;;;2.83;1.93;;;25.30;34.90;;;;;;5012939;28;20888;-88
2022/07/14 12:43:38;;;;;;;2.13;1.87;;;25.60;33.90;;;;;;5012959;28;20809;-89
2022/07/14 12:46:08;;;;;;;2.70;2.30;;;25.60;34.10;;;;;;5013004;28;20435;-88
2022/07/14 12:48:55;;;;;;;5.23;2.23;;;25.90;33.10;;;;;;5012839;28;21009;-88
2022/07/14 12:51:26;;;;;;;4.90;2.20;;;26.10;33.50;;;;;;5012969;28;20418;-87
2022/07/14 12:54:11;;;;;;;4.33;2.40;;;26.00;34.90;;;;;;5014700;28;20399;-89
2022/07/14 12:56:41;;;;;;;6.97;2.63;;;26.00;34.80;;;;;;5012881;28;20499;-87
2022/07/14 12:59:12;;;;;;;4.97;2.37;;;26.00;35.00;;;;;;5013081;28;20447;-87
2022/07/14 13:01:54;;;;;;;4.80;3.07;;;25.90;35.70;;;;;;5013610;28;20453;-88
2022/07/14 13:04:41;;;;;;;9.60;2.93;;;25.70;35.40;;;;;;5013217;28;20419;-89